Terminal Aerodrome Forecast
Issued by NWS Twin Cities, MN

Home | Current Version | Previous Version | Text Only | Print | Product List | Glossary Off
Versions: 1 2 3 4 5 6 7 8 9 10 11 12 13 14 15 16 17 18

000
FTUS43 KMPX 281400 AAA
TAFEAU
TAF AMD
KEAU 281447Z 2815/2912 26012KT P6SM BKN020 OVC040
     FM282000 28017G24KT P6SM BKN030 OVC050
     FM290200 28013G19KT P6SM FEW030 OVC050
     FM290600 30010KT P6SM OVC060=

USA.gov is the U.S. government's official web portal to all federal, state and local government web resources and services.